Beech Mountain, North Carolina
Current Conditions -  °F | °C
As of 8:35 PM on Wednesday 26 Nov 2014 (Local Time) from KTNB Reporting Station
Broken Clouds Broken Clouds  
Wind Chill: 33°   Ceiling: 6500
Heat Index: 33°   Visibility: 10mi
Dew Point: 32°   Wind: 3mph
Humidity: 96%   Direction: 360°N
Pressure: 29.98"   Gusts: NA
Location:  36.1797°N, 81.8424°W
Report Text: KTNB 270135Z AUTO 36003KT 10SM SCT046 BKN065 BKN110 01/00 A2998 RMK AO2 T00060000
Loading
Personal Weather Stations






























Interactive Weather Map New forecast layout! Learn more

10-Day Weather Forecast

Advertisements
Track Severe Weather on mobile